Time;durP1;ratioP1;P1;durP2;ratioP2;P2;SDS_P1;SDS_P2;PMS_P1;PMS_P2;Temp;Humidity;BMP_temperature;BMP_pressure;BME280_temperature;BME280_humidity;BME280_pressure;Samples;Min_cycle;Max_cycle;Signal;HPM_P1;HPM_P2
2022/08/19 00:00:33;;;;;;;8.40;4.57;;;;;;;;;;4998390;28;20038;-63
2022/08/19 00:02:59;;;;;;;5.88;4.57;;;;;;;;;;5012526;28;20042;-63
2022/08/19 00:05:25;;;;;;;7.03;4.82;;;;;;;;;;5010965;28;20045;-63
2022/08/19 00:07:51;;;;;;;6.70;4.78;;;;;;;;;;5000385;28;20048;-63
2022/08/19 00:10:18;;;;;;;6.50;4.28;;;;;;;;;;5002706;28;20042;-63
2022/08/19 00:12:45;;;;;;;5.53;3.95;;;;;;;;;;5006735;28;20042;-63
2022/08/19 00:15:13;;;;;;;7.25;4.47;;;;;;;;;;5013423;28;20048;-64
2022/08/19 00:17:40;;;;;;;6.75;5.90;;;;;;;;;;4995115;28;20053;-63
2022/08/19 00:20:07;;;;;;;7.88;6.15;;;;;;;;;;5012872;28;20076;-63
2022/08/19 00:22:33;;;;;;;9.70;6.28;;;;;;;;;;5007735;28;20065;-63
2022/08/19 00:24:59;;;;;;;7.03;6.07;;;;;;;;;;5011623;28;20076;-63
2022/08/19 00:27:25;;;;;;;11.65;8.20;;;;;;;;;;5002306;28;20565;-63
2022/08/19 00:29:51;;;;;;;6.03;5.05;;;;;;;;;;5002660;28;20095;-63
2022/08/19 00:32:17;;;;;;;9.00;5.80;;;;;;;;;;5006175;28;20037;-63
2022/08/19 00:34:43;;;;;;;4.18;3.22;;;;;;;;;;4998596;28;20563;-63
2022/08/19 00:37:09;;;;;;;4.03;3.22;;;;;;;;;;5006466;28;20152;-63
2022/08/19 00:39:36;;;;;;;6.90;4.38;;;;;;;;;;5002500;28;20038;-63
2022/08/19 00:42:02;;;;;;;8.07;6.30;;;;;;;;;;5004442;28;20042;-63
2022/08/19 00:44:30;;;;;;;8.70;6.10;;;;;;;;;;5004881;28;20056;-63
2022/08/19 00:46:58;;;;;;;9.30;6.32;;;;;;;;;;5011782;28;20041;-64
2022/08/19 00:49:41;;;;;;;8.30;7.07;;;;;;;;;;5012692;28;20077;-63
2022/08/19 00:52:10;;;;;;;9.40;7.10;;;;;;;;;;4993534;28;20508;-63
2022/08/19 00:54:38;;;;;;;7.38;4.95;;;;;;;;;;5001275;28;20088;-63
2022/08/19 00:57:06;;;;;;;7.85;4.70;;;;;;;;;;5004240;28;20199;-63
2022/08/19 00:59:34;;;;;;;7.43;5.70;;;;;;;;;;4993695;28;20042;-63
2022/08/19 01:02:00;;;;;;;8.55;6.32;;;;;;;;;;5011143;28;20053;-63
2022/08/19 01:04:26;;;;;;;7.50;6.55;;;;;;;;;;5002484;28;20034;-63
2022/08/19 01:06:52;;;;;;;8.10;5.70;;;;;;;;;;4999201;28;20129;-64
2022/08/19 01:09:18;;;;;;;6.32;5.70;;;;;;;;;;5003705;28;20225;-64
2022/08/19 01:11:45;;;;;;;8.50;6.28;;;;;;;;;;5003945;28;20054;-64
2022/08/19 01:14:12;;;;;;;4.03;3.28;;;;;;;;;;5001614;28;20112;-64
2022/08/19 01:16:38;;;;;;;4.68;4.03;;;;;;;;;;5009337;28;20125;-64
2022/08/19 01:19:10;;;;;;;5.90;3.80;;;;;;;;;;5004995;28;20054;-64
2022/08/19 01:21:46;;;;;;;5.55;4.07;;;;;;;;;;4998823;28;20188;-64
2022/08/19 01:24:12;;;;;;;6.82;4.93;;;;;;;;;;5002176;28;20088;-64
2022/08/19 01:26:41;;;;;;;3.00;2.03;;;;;;;;;;5008761;28;21209;-64
2022/08/19 01:29:08;;;;;;;8.77;6.32;;;;;;;;;;5004046;28;20057;-63
2022/08/19 01:31:34;;;;;;;5.43;4.30;;;;;;;;;;5007657;28;20041;-63
2022/08/19 01:34:01;;;;;;;4.78;3.85;;;;;;;;;;5006849;28;20050;-63
2022/08/19 01:36:33;;;;;;;4.55;3.70;;;;;;;;;;5004494;28;20054;-63
2022/08/19 01:38:59;;;;;;;4.38;3.55;;;;;;;;;;5002777;28;20144;-64
2022/08/19 01:41:26;;;;;;;6.57;4.28;;;;;;;;;;5002619;28;20126;-64
2022/08/19 01:43:52;;;;;;;6.13;3.92;;;;;;;;;;4998001;28;20038;-64
2022/08/19 01:46:18;;;;;;;5.93;4.20;;;;;;;;;;5003776;28;20042;-64
2022/08/19 01:48:45;;;;;;;4.50;3.53;;;;;;;;;;5011172;28;20029;-64
2022/08/19 01:51:12;;;;;;;6.80;4.40;;;;;;;;;;5007003;28;20402;-64
2022/08/19 01:53:38;;;;;;;7.13;5.20;;;;;;;;;;4999886;28;20041;-63
2022/08/19 01:56:05;;;;;;;5.07;4.30;;;;;;;;;;5003949;28;20041;-64
2022/08/19 01:58:33;;;;;;;9.07;6.22;;;;;;;;;;5003871;28;20069;-64
2022/08/19 02:00:59;;;;;;;9.88;7.13;;;;;;;;;;5008866;28;20511;-64
2022/08/19 02:03:25;;;;;;;8.00;6.47;;;;;;;;;;4998882;28;20038;-63
2022/08/19 02:05:56;;;;;;;6.70;5.47;;;;;;;;;;5001657;28;20045;-64
2022/08/19 02:08:22;;;;;;;6.88;5.40;;;;;;;;;;4992264;28;20623;-64
2022/08/19 02:10:49;;;;;;;7.13;5.25;;;;;;;;;;5002615;28;20077;-64
2022/08/19 02:13:15;;;;;;;7.78;5.03;;;;;;;;;;5004994;28;20049;-64
2022/08/19 02:15:42;;;;;;;14.32;6.95;;;;;;;;;;5001424;28;20440;-64
2022/08/19 02:18:08;;;;;;;10.20;7.63;;;;;;;;;;5003494;28;20041;-64
2022/08/19 02:20:34;;;;;;;6.82;6.13;;;;;;;;;;5000902;28;20065;-64
2022/08/19 02:23:01;;;;;;;7.03;4.68;;;;;;;;;;4996688;28;20050;-64
2022/08/19 02:25:27;;;;;;;5.82;4.30;;;;;;;;;;4997764;28;20562;-64
2022/08/19 02:27:53;;;;;;;5.50;4.13;;;;;;;;;;5007078;28;20112;-64
2022/08/19 02:30:20;;;;;;;22.02;5.80;;;;;;;;;;5007041;28;20045;-64
2022/08/19 02:32:46;;;;;;;11.45;5.03;;;;;;;;;;4997755;28;20495;-64
2022/08/19 02:35:14;;;;;;;6.43;4.43;;;;;;;;;;5000998;28;20045;-63
2022/08/19 02:40:25;;;;;;;5.13;4.03;;;;;;;;;;5009002;28;20046;-64
2022/08/19 02:42:51;;;;;;;5.63;4.47;;;;;;;;;;5005736;28;20050;-63
2022/08/19 02:45:17;;;;;;;5.75;4.85;;;;;;;;;;4995766;28;20381;-63
2022/08/19 02:47:43;;;;;;;5.93;4.40;;;;;;;;;;4999145;28;20515;-63
2022/08/19 02:50:09;;;;;;;6.88;5.68;;;;;;;;;;5000762;28;20038;-63
2022/08/19 02:52:35;;;;;;;6.15;4.60;;;;;;;;;;4991150;28;20049;-63
2022/08/19 02:55:02;;;;;;;8.15;5.35;;;;;;;;;;5001996;28;20118;-64
2022/08/19 02:57:28;;;;;;;5.65;5.03;;;;;;;;;;5006550;28;20046;-64
2022/08/19 02:59:54;;;;;;;8.32;4.57;;;;;;;;;;5001518;28;20044;-64
2022/08/19 03:02:20;;;;;;;6.30;4.72;;;;;;;;;;5010711;28;20042;-64
2022/08/19 03:04:46;;;;;;;7.57;4.55;;;;;;;;;;4998644;28;20045;-64
2022/08/19 03:07:16;;;;;;;5.85;3.95;;;;;;;;;;5004626;28;20041;-64
2022/08/19 03:09:42;;;;;;;5.05;3.40;;;;;;;;;;5010194;28;20391;-64
2022/08/19 03:12:08;;;;;;;5.82;3.83;;;;;;;;;;5003779;28;20042;-64
2022/08/19 03:14:35;;;;;;;5.28;3.83;;;;;;;;;;5002850;28;20041;-64
2022/08/19 03:17:03;;;;;;;5.88;4.50;;;;;;;;;;4995908;28;20038;-64
2022/08/19 03:19:29;;;;;;;6.90;4.43;;;;;;;;;;5010535;28;20042;-64
2022/08/19 03:21:55;;;;;;;6.93;4.78;;;;;;;;;;5006035;28;20085;-64
2022/08/19 03:24:21;;;;;;;5.45;4.00;;;;;;;;;;5006104;28;20608;-64
2022/08/19 03:26:51;;;;;;;9.23;3.72;;;;;;;;;;5005877;28;20092;-64
2022/08/19 03:29:17;;;;;;;5.18;3.42;;;;;;;;;;5003771;28;20046;-64
2022/08/19 03:31:44;;;;;;;5.63;3.47;;;;;;;;;;5012082;28;20030;-64
2022/08/19 03:34:11;;;;;;;4.97;3.90;;;;;;;;;;5008513;28;20474;-64
2022/08/19 03:36:37;;;;;;;6.60;3.15;;;;;;;;;;5011362;28;20355;-64
2022/08/19 03:39:04;;;;;;;3.72;3.28;;;;;;;;;;5004977;28;20060;-64
2022/08/19 03:41:32;;;;;;;5.32;3.53;;;;;;;;;;5005679;28;20566;-64
2022/08/19 03:43:58;;;;;;;4.68;3.53;;;;;;;;;;5003465;28;20038;-64
2022/08/19 03:46:31;;;;;;;5.97;4.03;;;;;;;;;;5006360;28;20046;-64
2022/08/19 03:48:59;;;;;;;4.93;3.55;;;;;;;;;;5009173;28;20073;-64
2022/08/19 03:51:33;;;;;;;7.07;3.88;;;;;;;;;;5006589;28;20530;-64
2022/08/19 03:54:01;;;;;;;7.60;4.65;;;;;;;;;;5009762;28;20523;-64
2022/08/19 03:56:27;;;;;;;4.78;3.45;;;;;;;;;;5003572;28;20084;-64
2022/08/19 03:58:54;;;;;;;7.20;4.35;;;;;;;;;;5007219;28;20050;-64
2022/08/19 04:01:22;;;;;;;9.38;4.45;;;;;;;;;;5009087;28;20046;-63
2022/08/19 04:03:48;;;;;;;5.38;4.28;;;;;;;;;;5004145;28;20128;-63
2022/08/19 04:06:15;;;;;;;5.25;4.13;;;;;;;;;;5005027;28;20058;-63
2022/08/19 04:08:42;;;;;;;5.50;4.25;;;;;;;;;;4993260;28;20069;-63
2022/08/19 04:11:13;;;;;;;5.97;4.35;;;;;;;;;;5005726;28;20034;-63
2022/08/19 04:13:39;;;;;;;;;;;;;;;;;;5008017;28;20053;-63
2022/08/19 04:16:06;;;;;;;10.75;5.70;;;;;;;;;;5004160;28;21681;-63
2022/08/19 04:18:33;;;;;;;6.88;4.55;;;;;;;;;;5013339;28;20495;-63
2022/08/19 04:21:00;;;;;;;11.65;4.93;;;;;;;;;;5010439;28;20044;-63
2022/08/19 04:23:27;;;;;;;8.50;4.65;;;;;;;;;;5001063;28;20061;-64
2022/08/19 04:25:54;;;;;;;10.23;6.60;;;;;;;;;;5009590;28;20442;-63
2022/08/19 04:28:20;;;;;;;9.73;5.53;;;;;;;;;;5009851;28;20069;-63
2022/08/19 04:30:48;;;;;;;9.45;6.20;;;;;;;;;;5007725;28;20042;-63
2022/08/19 04:33:15;;;;;;;8.25;6.40;;;;;;;;;;5009762;28;20046;-64
2022/08/19 04:35:43;;;;;;;7.68;5.47;;;;;;;;;;5004808;28;20053;-63
2022/08/19 04:38:09;;;;;;;9.35;5.63;;;;;;;;;;5001773;28;20038;-63
2022/08/19 04:43:25;;;;;;;5.75;4.88;;;;;;;;;;5006675;28;20049;-63
2022/08/19 04:45:51;;;;;;;6.38;4.97;;;;;;;;;;5005740;28;20041;-63
2022/08/19 04:48:22;;;;;;;6.43;4.35;;;;;;;;;;5005641;28;20153;-63
2022/08/19 04:50:48;;;;;;;7.22;4.75;;;;;;;;;;5012515;28;20073;-63
2022/08/19 04:53:15;;;;;;;6.68;5.13;;;;;;;;;;5012559;28;20081;-63
2022/08/19 04:55:41;;;;;;;7.07;4.60;;;;;;;;;;5006739;28;20125;-63
2022/08/19 04:58:07;;;;;;;7.18;5.20;;;;;;;;;;5003681;28;20037;-63
2022/08/19 05:00:33;;;;;;;5.53;4.40;;;;;;;;;;5006797;28;20044;-63
2022/08/19 05:03:00;;;;;;;7.07;4.95;;;;;;;;;;5002905;28;20038;-63
2022/08/19 05:05:26;;;;;;;12.30;5.88;;;;;;;;;;4999169;28;20043;-63
2022/08/19 05:07:52;;;;;;;10.45;6.00;;;;;;;;;;5000868;28;20507;-63
2022/08/19 05:10:18;;;;;;;10.23;6.50;;;;;;;;;;4999617;28;20037;-63
2022/08/19 05:12:44;;;;;;;9.68;6.05;;;;;;;;;;5001610;28;20046;-63
2022/08/19 05:15:10;;;;;;;9.32;5.40;;;;;;;;;;5000377;28;20427;-63
2022/08/19 05:17:37;;;;;;;8.10;5.75;;;;;;;;;;5008624;28;20041;-64
2022/08/19 05:22:49;;;;;;;8.85;5.30;;;;;;;;;;5005288;28;20459;-63
2022/08/19 05:25:18;;;;;;;9.10;5.60;;;;;;;;;;5010788;28;20089;-64
2022/08/19 05:27:44;;;;;;;7.82;5.10;;;;;;;;;;5000813;28;20030;-64
2022/08/19 05:30:11;;;;;;;7.85;5.15;;;;;;;;;;5003443;28;20038;-64
2022/08/19 05:32:38;;;;;;;8.55;5.80;;;;;;;;;;5010241;28;20038;-64
2022/08/19 05:35:04;;;;;;;6.55;5.28;;;;;;;;;;5008914;28;20041;-64
2022/08/19 05:37:30;;;;;;;8.10;5.53;;;;;;;;;;5003256;28;20050;-64
2022/08/19 05:39:56;;;;;;;6.78;5.47;;;;;;;;;;4998706;28;20053;-64
2022/08/19 05:42:22;;;;;;;7.28;5.95;;;;;;;;;;5004508;28;20049;-64
2022/08/19 05:44:49;;;;;;;6.45;5.40;;;;;;;;;;4998262;28;20459;-64
2022/08/19 05:47:15;;;;;;;6.93;4.97;;;;;;;;;;4996248;28;20034;-64
2022/08/19 05:49:42;;;;;;;8.07;5.63;;;;;;;;;;5005341;28;20042;-64
2022/08/19 05:52:10;;;;;;;8.77;5.47;;;;;;;;;;5003683;28;20046;-63
2022/08/19 05:54:39;;;;;;;7.18;5.85;;;;;;;;;;5003709;28;20045;-64
2022/08/19 05:57:06;;;;;;;9.50;6.43;;;;;;;;;;5010570;28;20121;-64
2022/08/19 05:59:35;;;;;;;10.48;5.93;;;;;;;;;;5004873;28;20038;-65
2022/08/19 06:02:01;;;;;;;8.10;6.00;;;;;;;;;;5000928;28;20053;-65
2022/08/19 06:04:27;;;;;;;10.48;7.25;;;;;;;;;;5002370;28;20499;-66
2022/08/19 06:06:53;;;;;;;13.15;8.80;;;;;;;;;;5004194;28;20038;-65
2022/08/19 06:09:20;;;;;;;12.93;8.23;;;;;;;;;;5006991;28;20210;-65
2022/08/19 06:11:59;;;;;;;13.30;9.40;;;;;;;;;;5006866;28;20038;-65
2022/08/19 06:14:26;;;;;;;12.57;8.85;;;;;;;;;;5001665;28;20450;-65
2022/08/19 06:16:53;;;;;;;12.25;8.98;;;;;;;;;;5003302;28;20470;-65
2022/08/19 06:19:20;;;;;;;15.50;9.25;;;;;;;;;;5004629;28;20038;-65
2022/08/19 06:21:47;;;;;;;14.98;9.23;;;;;;;;;;5000861;28;20094;-66
2022/08/19 06:24:14;;;;;;;16.42;10.10;;;;;;;;;;5004980;28;20117;-65
2022/08/19 06:26:42;;;;;;;16.45;11.25;;;;;;;;;;4996836;28;20050;-65
2022/08/19 06:29:10;;;;;;;19.40;11.77;;;;;;;;;;5007394;28;20051;-65
2022/08/19 06:31:36;;;;;;;19.73;12.75;;;;;;;;;;5004687;28;20054;-66
2022/08/19 06:34:03;;;;;;;17.73;12.48;;;;;;;;;;5002865;28;20070;-66
2022/08/19 06:36:33;;;;;;;19.27;12.60;;;;;;;;;;5003714;28;20038;-66
2022/08/19 06:39:01;;;;;;;24.17;13.85;;;;;;;;;;5008640;28;20038;-65
2022/08/19 06:41:27;;;;;;;19.77;12.98;;;;;;;;;;5003569;28;20126;-66
2022/08/19 06:43:53;;;;;;;21.75;13.68;;;;;;;;;;5006911;28;20062;-66
2022/08/19 06:46:20;;;;;;;23.17;14.38;;;;;;;;;;5004078;28;20041;-65
2022/08/19 06:48:46;;;;;;;21.80;13.98;;;;;;;;;;5004609;28;20042;-66
2022/08/19 06:51:18;;;;;;;23.10;14.40;;;;;;;;;;5001591;28;20121;-65
2022/08/19 06:53:46;;;;;;;23.77;15.10;;;;;;;;;;4998121;28;20043;-65
2022/08/19 06:56:12;;;;;;;21.98;15.13;;;;;;;;;;4985591;28;20041;-65
2022/08/19 06:58:38;;;;;;;24.02;15.43;;;;;;;;;;5005666;28;20045;-65
2022/08/19 07:01:05;;;;;;;24.52;14.20;;;;;;;;;;5015917;28;20089;-65
2022/08/19 07:03:32;;;;;;;22.10;14.70;;;;;;;;;;5014634;28;20053;-65
2022/08/19 07:05:58;;;;;;;24.42;15.00;;;;;;;;;;5014909;28;20042;-65
2022/08/19 07:08:26;;;;;;;22.60;15.18;;;;;;;;;;5008703;28;20034;-65
2022/08/19 07:10:53;;;;;;;21.58;14.65;;;;;;;;;;5014661;28;20116;-65
2022/08/19 07:13:19;;;;;;;22.20;14.57;;;;;;;;;;5011088;28;20049;-65
2022/08/19 07:15:46;;;;;;;21.95;15.20;;;;;;;;;;5009931;28;20038;-65
2022/08/19 07:18:12;;;;;;;19.30;14.30;;;;;;;;;;4995797;28;20447;-65
2022/08/19 07:20:39;;;;;;;18.67;14.43;;;;;;;;;;5002692;28;20423;-65
2022/08/19 07:23:05;;;;;;;19.52;14.85;;;;;;;;;;4995916;28;20129;-65
2022/08/19 07:25:31;;;;;;;21.13;13.93;;;;;;;;;;5003762;28;20050;-65
2022/08/19 07:27:57;;;;;;;19.98;14.35;;;;;;;;;;4994779;28;20038;-65
2022/08/19 07:30:23;;;;;;;19.45;14.20;;;;;;;;;;5007690;28;20037;-65
2022/08/19 07:32:52;;;;;;;22.95;14.75;;;;;;;;;;5008155;28;20526;-65
2022/08/19 07:35:19;;;;;;;18.65;14.13;;;;;;;;;;5013379;28;20045;-65
2022/08/19 07:37:45;;;;;;;20.27;14.55;;;;;;;;;;5007588;28;20066;-66
2022/08/19 07:40:12;;;;;;;20.92;15.38;;;;;;;;;;5009616;28;20038;-65
2022/08/19 07:42:38;;;;;;;21.33;14.90;;;;;;;;;;5002845;28;20077;-65
2022/08/19 07:45:06;;;;;;;22.02;14.60;;;;;;;;;;5005448;28;20121;-65
2022/08/19 07:47:32;;;;;;;20.02;14.15;;;;;;;;;;5008840;28;20476;-65
2022/08/19 07:49:58;;;;;;;20.75;15.25;;;;;;;;;;4996922;28;20077;-65
2022/08/19 07:52:24;;;;;;;20.45;14.13;;;;;;;;;;5013672;28;20461;-65
2022/08/19 07:54:50;;;;;;;21.52;15.35;;;;;;;;;;5013788;28;20128;-65
2022/08/19 07:57:18;;;;;;;23.30;14.93;;;;;;;;;;5011678;28;20042;-65
2022/08/19 07:59:44;;;;;;;22.67;15.88;;;;;;;;;;5010192;28;20041;-65
2022/08/19 08:02:10;;;;;;;20.80;15.48;;;;;;;;;;5005837;28;20056;-65
2022/08/19 08:10:07;;;;;;;21.30;15.40;;;;;;;;;;5010330;28;20069;-65
2022/08/19 08:12:37;;;;;;;22.00;15.35;;;;;;;;;;5010858;28;20499;-65
2022/08/19 08:15:07;;;;;;;21.27;15.15;;;;;;;;;;5006795;28;20091;-65
2022/08/19 08:17:33;;;;;;;19.40;14.60;;;;;;;;;;5001968;28;20045;-65
2022/08/19 08:19:59;;;;;;;18.52;14.27;;;;;;;;;;5002541;28;20038;-65
2022/08/19 08:25:16;;;;;;;21.58;14.60;;;;;;;;;;4979122;28;20037;-65
2022/08/19 08:27:43;;;;;;;19.77;14.43;;;;;;;;;;5010957;28;20040;-66
2022/08/19 08:30:11;;;;;;;20.02;13.88;;;;;;;;;;5005471;28;20076;-65
2022/08/19 08:32:37;;;;;;;19.10;12.70;;;;;;;;;;5004089;28;20407;-65
2022/08/19 08:35:07;;;;;;;17.00;12.10;;;;;;;;;;5003025;28;20038;-66
2022/08/19 08:37:33;;;;;;;17.92;12.77;;;;;;;;;;4994555;28;20030;-66
2022/08/19 08:39:59;;;;;;;19.38;13.55;;;;;;;;;;5001985;28;20077;-65
2022/08/19 08:42:31;;;;;;;18.95;14.70;;;;;;;;;;4995180;28;20125;-65
2022/08/19 08:45:01;;;;;;;18.45;13.48;;;;;;;;;;5004835;28;20034;-65
2022/08/19 08:47:31;;;;;;;21.70;14.73;;;;;;;;;;5005784;28;20488;-65
2022/08/19 08:50:03;;;;;;;19.17;13.55;;;;;;;;;;5006867;28;20305;-65
2022/08/19 08:52:33;;;;;;;14.85;12.18;;;;;;;;;;5012254;28;20038;-65
2022/08/19 08:55:00;;;;;;;15.80;12.40;;;;;;;;;;5008342;28;20046;-65
2022/08/19 08:57:34;;;;;;;15.45;11.35;;;;;;;;;;5003923;28;20038;-65
2022/08/19 09:00:03;;;;;;;19.52;13.40;;;;;;;;;;5000839;28;20128;-66
2022/08/19 09:02:29;;;;;;;17.90;12.90;;;;;;;;;;5000368;28;20038;-65
2022/08/19 09:04:55;;;;;;;16.30;11.98;;;;;;;;;;5005039;28;20088;-65
2022/08/19 09:07:26;;;;;;;16.35;12.35;;;;;;;;;;4995048;28;20039;-65
2022/08/19 09:09:53;;;;;;;13.68;12.15;;;;;;;;;;5000081;28;20045;-65
2022/08/19 09:12:38;;;;;;;14.32;11.10;;;;;;;;;;5003436;28;20129;-65
2022/08/19 09:15:09;;;;;;;13.40;11.05;;;;;;;;;;5011206;28;20095;-66
2022/08/19 09:17:38;;;;;;;14.95;10.43;;;;;;;;;;5003773;28;20041;-65
2022/08/19 09:20:08;;;;;;;14.48;10.45;;;;;;;;;;4998379;28;20051;-65
2022/08/19 09:22:35;;;;;;;12.88;9.82;;;;;;;;;;5005504;28;20404;-65
2022/08/19 09:25:01;;;;;;;14.00;10.80;;;;;;;;;;5001228;28;20436;-65
2022/08/19 09:27:28;;;;;;;14.20;11.80;;;;;;;;;;4996177;28;20034;-65
2022/08/19 09:29:55;;;;;;;15.52;11.65;;;;;;;;;;4997096;28;20043;-65
2022/08/19 09:32:23;;;;;;;17.38;12.82;;;;;;;;;;5001742;28;20521;-65
2022/08/19 09:34:49;;;;;;;12.88;10.48;;;;;;;;;;4999188;28;20053;-65
2022/08/19 09:37:15;;;;;;;16.63;12.20;;;;;;;;;;4996946;28;20439;-65
2022/08/19 09:39:42;;;;;;;18.88;12.43;;;;;;;;;;5006369;28;20045;-66
2022/08/19 09:42:13;;;;;;;15.90;12.38;;;;;;;;;;5006146;28;20053;-65
2022/08/19 09:44:40;;;;;;;14.65;10.70;;;;;;;;;;5010833;28;20045;-65
2022/08/19 09:47:07;;;;;;;19.42;13.00;;;;;;;;;;4996677;28;20061;-66
2022/08/19 09:49:33;;;;;;;16.10;11.82;;;;;;;;;;4999869;28;20030;-65
2022/08/19 09:51:59;;;;;;;17.23;12.82;;;;;;;;;;5001095;28;20184;-66
2022/08/19 09:54:25;;;;;;;16.20;12.65;;;;;;;;;;4997822;28;20054;-65
2022/08/19 09:56:52;;;;;;;14.52;11.70;;;;;;;;;;5009769;23;20046;-63
2022/08/19 09:59:18;;;;;;;19.02;13.02;;;;;;;;;;4990919;28;20042;-63
2022/08/19 10:01:44;;;;;;;15.60;11.55;;;;;;;;;;4992717;28;20046;-63
2022/08/19 10:04:10;;;;;;;12.13;9.85;;;;;;;;;;4992749;28;20386;-63
2022/08/19 10:06:39;;;;;;;14.55;11.10;;;;;;;;;;4992722;28;20050;-63
2022/08/19 10:09:07;;;;;;;14.60;10.90;;;;;;;;;;4971457;28;20468;-63
2022/08/19 10:11:34;;;;;;;13.70;10.40;;;;;;;;;;4992382;28;20038;-63
2022/08/19 10:14:00;;;;;;;17.90;13.02;;;;;;;;;;4984765;28;20038;-63
2022/08/19 10:16:26;;;;;;;14.90;11.77;;;;;;;;;;4991922;28;20489;-63
2022/08/19 10:18:53;;;;;;;15.95;11.45;;;;;;;;;;4991147;28;20042;-63
2022/08/19 10:21:23;;;;;;;17.13;11.75;;;;;;;;;;4992791;28;20456;-63
2022/08/19 10:23:51;;;;;;;12.63;10.73;;;;;;;;;;4983905;28;20038;-63
2022/08/19 10:26:18;;;;;;;13.07;11.27;;;;;;;;;;4984077;28;20035;-64
2022/08/19 10:28:44;;;;;;;14.00;10.00;;;;;;;;;;4986472;28;20042;-63
2022/08/19 10:31:12;;;;;;;14.60;9.45;;;;;;;;;;4985787;28;20398;-63
2022/08/19 10:33:39;;;;;;;14.52;12.13;;;;;;;;;;4974367;28;20050;-63
2022/08/19 10:36:07;;;;;;;14.23;10.88;;;;;;;;;;4991481;28;20049;-63
2022/08/19 10:38:34;;;;;;;17.45;11.38;;;;;;;;;;4986253;28;20185;-64
2022/08/19 10:41:13;;;;;;;13.43;10.30;;;;;;;;;;4991906;28;20045;-64
2022/08/19 10:43:40;;;;;;;11.52;9.18;;;;;;;;;;4985556;28;20064;-63
2022/08/19 10:46:08;;;;;;;14.70;11.35;;;;;;;;;;4988196;28;20499;-63
2022/08/19 10:48:34;;;;;;;13.13;10.23;;;;;;;;;;4988476;28;20499;-63
2022/08/19 10:53:45;;;;;;;11.77;9.95;;;;;;;;;;4976675;28;20093;-63
2022/08/19 10:58:57;;;;;;;12.13;9.55;;;;;;;;;;4990842;28;20070;-63
2022/08/19 11:01:23;;;;;;;11.93;9.20;;;;;;;;;;4990676;28;20105;-63
2022/08/19 11:03:49;;;;;;;13.00;9.73;;;;;;;;;;4987601;28;20464;-63
2022/08/19 11:06:16;;;;;;;11.25;9.75;;;;;;;;;;4987874;28;20504;-63
2022/08/19 11:08:44;;;;;;;11.63;9.40;;;;;;;;;;4990407;28;20552;-63
2022/08/19 11:11:10;;;;;;;11.85;9.00;;;;;;;;;;4989080;28;20046;-63
2022/08/19 11:13:38;;;;;;;14.10;9.32;;;;;;;;;;4991648;28;20188;-63
2022/08/19 11:16:09;;;;;;;10.35;8.93;;;;;;;;;;4992064;28;20047;-64
2022/08/19 11:18:40;;;;;;;11.23;8.20;;;;;;;;;;4990965;28;20046;-64
2022/08/19 11:21:10;;;;;;;11.80;9.52;;;;;;;;;;4968783;28;20054;-64
2022/08/19 11:23:36;;;;;;;;;;;;;;;;;;4989415;28;20042;-64
2022/08/19 11:26:02;;;;;;;11.15;9.40;;;;;;;;;;4989917;28;20016;-64
2022/08/19 11:28:28;;;;;;;9.20;7.05;;;;;;;;;;4989282;28;20045;-61
2022/08/19 11:30:54;;;;;;;9.00;7.30;;;;;;;;;;4990452;28;20093;-62
2022/08/19 11:33:20;;;;;;;9.35;7.47;;;;;;;;;;4990657;28;20516;-62
2022/08/19 11:35:46;;;;;;;13.32;8.57;;;;;;;;;;4990412;28;20042;-62
2022/08/19 11:38:14;;;;;;;10.30;8.60;;;;;;;;;;4990205;28;20181;-62
2022/08/19 11:40:41;;;;;;;12.77;9.02;;;;;;;;;;4976348;28;20065;-63
2022/08/19 11:43:09;;;;;;;10.45;8.85;;;;;;;;;;4990319;28;20050;-62
2022/08/19 11:45:36;;;;;;;10.32;9.23;;;;;;;;;;4975967;28;20041;-62
2022/08/19 11:48:02;;;;;;;12.60;9.10;;;;;;;;;;4994012;28;20042;-62
2022/08/19 11:50:29;;;;;;;10.40;8.75;;;;;;;;;;4985860;28;20512;-62
2022/08/19 11:52:56;;;;;;;9.88;8.80;;;;;;;;;;4994676;28;20438;-62
2022/08/19 11:55:22;;;;;;;10.48;8.18;;;;;;;;;;4992092;28;20046;-62
2022/08/19 11:57:48;;;;;;;13.77;9.07;;;;;;;;;;4994217;28;20042;-62
2022/08/19 12:00:14;;;;;;;12.60;8.95;;;;;;;;;;4994894;28;20046;-62
2022/08/19 12:02:40;;;;;;;10.13;8.48;;;;;;;;;;4992567;28;20060;-62
2022/08/19 12:05:07;;;;;;;12.55;9.50;;;;;;;;;;4992078;28;20053;-62
2022/08/19 12:07:33;;;;;;;11.68;9.05;;;;;;;;;;4993336;28;20041;-62
2022/08/19 12:10:00;;;;;;;10.85;8.27;;;;;;;;;;4994037;28;20093;-62
2022/08/19 12:12:26;;;;;;;13.45;10.25;;;;;;;;;;4994951;28;20046;-62
2022/08/19 12:14:56;;;;;;;15.52;10.88;;;;;;;;;;4981257;28;20717;-62
2022/08/19 12:17:26;;;;;;;12.38;10.20;;;;;;;;;;4993348;28;20508;-62
2022/08/19 12:19:52;;;;;;;12.85;10.15;;;;;;;;;;4993925;28;20050;-62
2022/08/19 12:22:20;;;;;;;10.52;9.30;;;;;;;;;;4986391;28;20493;-62
2022/08/19 12:24:47;;;;;;;11.90;9.10;;;;;;;;;;4983621;28;20043;-62
2022/08/19 12:27:13;;;;;;;10.73;9.13;;;;;;;;;;4987112;28;20056;-62
2022/08/19 12:29:39;;;;;;;13.00;9.27;;;;;;;;;;4993011;28;20065;-62
2022/08/19 12:32:05;;;;;;;9.27;8.10;;;;;;;;;;4985867;28;20074;-62
2022/08/19 12:34:33;;;;;;;10.35;9.35;;;;;;;;;;4985387;28;20074;-62
2022/08/19 12:36:59;;;;;;;11.35;9.68;;;;;;;;;;4991832;28;20070;-63
2022/08/19 12:39:26;;;;;;;10.48;9.00;;;;;;;;;;4988730;28;20042;-62
2022/08/19 12:41:52;;;;;;;11.98;8.90;;;;;;;;;;4993175;28;20042;-62
2022/08/19 12:44:18;;;;;;;12.82;9.20;;;;;;;;;;4993622;28;20050;-62
2022/08/19 12:46:44;;;;;;;10.77;9.65;;;;;;;;;;4967698;28;20121;-63
2022/08/19 12:49:10;;;;;;;16.35;10.77;;;;;;;;;;4994092;28;20093;-63
2022/08/19 12:51:36;;;;;;;12.52;9.60;;;;;;;;;;4988313;28;20500;-62
2022/08/19 12:54:04;;;;;;;10.35;9.20;;;;;;;;;;4987573;28;20084;-63
2022/08/19 12:56:31;;;;;;;11.10;8.10;;;;;;;;;;4985488;28;20105;-63
2022/08/19 12:58:57;;;;;;;8.82;7.10;;;;;;;;;;4976746;28;20053;-63
2022/08/19 13:01:23;;;;;;;10.25;7.05;;;;;;;;;;4994222;28;20125;-63
2022/08/19 13:03:49;;;;;;;11.52;8.57;;;;;;;;;;4987623;28;20556;-63
2022/08/19 13:06:15;;;;;;;11.07;8.52;;;;;;;;;;4988891;28;20404;-63
2022/08/19 13:08:41;;;;;;;9.73;8.55;;;;;;;;;;4962558;28;20073;-63
2022/08/19 13:11:18;;;;;;;11.32;6.90;;;;;;;;;;4976104;28;20081;-63
2022/08/19 13:13:45;;;;;;;8.52;7.22;;;;;;;;;;4987530;28;20452;-63
2022/08/19 13:16:12;;;;;;;10.52;6.47;;;;;;;;;;4982493;28;20046;-63
2022/08/19 13:18:39;;;;;;;8.57;7.68;;;;;;;;;;4991256;28;20042;-63
2022/08/19 13:21:06;;;;;;;10.63;8.25;;;;;;;;;;5008084;28;20526;-63
2022/08/19 13:23:32;;;;;;;8.48;7.10;;;;;;;;;;4981730;28;20043;-63
2022/08/19 13:25:59;;;;;;;9.05;6.63;;;;;;;;;;4991636;28;20500;-63
2022/08/19 13:28:25;;;;;;;8.23;6.70;;;;;;;;;;4992333;28;20161;-63
2022/08/19 13:33:37;;;;;;;8.00;6.22;;;;;;;;;;4975664;28;20134;-63
2022/08/19 13:36:07;;;;;;;7.80;7.00;;;;;;;;;;4985275;28;20057;-63
2022/08/19 13:38:33;;;;;;;8.48;6.68;;;;;;;;;;4981828;28;20053;-63
2022/08/19 13:41:04;;;;;;;8.10;6.20;;;;;;;;;;4993169;28;20049;-63
2022/08/19 13:43:30;;;;;;;7.25;5.15;;;;;;;;;;4974996;28;20046;-63
2022/08/19 13:45:56;;;;;;;9.95;5.80;;;;;;;;;;4981737;28;20558;-63
2022/08/19 13:48:23;;;;;;;6.45;5.00;;;;;;;;;;4992978;28;20488;-63
2022/08/19 13:50:49;;;;;;;6.75;5.90;;;;;;;;;;4992943;28;20089;-63
2022/08/19 13:53:15;;;;;;;9.52;6.18;;;;;;;;;;4984069;28;20531;-63
2022/08/19 13:55:42;;;;;;;9.32;7.72;;;;;;;;;;4984697;28;20428;-63
2022/08/19 13:58:10;;;;;;;8.60;7.70;;;;;;;;;;4990025;28;20043;-63
2022/08/19 14:00:44;;;;;;;8.77;6.30;;;;;;;;;;4992864;28;20046;-63
2022/08/19 14:03:11;;;;;;;5.95;5.25;;;;;;;;;;4992725;28;20126;-63
2022/08/19 14:05:37;;;;;;;6.50;5.82;;;;;;;;;;4983587;28;20038;-63
2022/08/19 14:08:03;;;;;;;8.15;5.55;;;;;;;;;;4991937;28;20053;-63
2022/08/19 14:10:31;;;;;;;6.22;5.50;;;;;;;;;;4992277;28;20038;-63
2022/08/19 14:13:00;;;;;;;7.45;5.18;;;;;;;;;;4992740;28;20043;-64
2022/08/19 14:15:26;;;;;;;7.40;6.70;;;;;;;;;;4984030;28;20045;-63
2022/08/19 14:17:53;;;;;;;7.50;6.28;;;;;;;;;;4992273;28;20046;-63
2022/08/19 14:20:19;;;;;;;9.45;7.30;;;;;;;;;;4991529;28;20125;-64
2022/08/19 14:22:46;;;;;;;8.13;6.45;;;;;;;;;;4983957;28;20081;-63
2022/08/19 14:25:14;;;;;;;9.60;7.20;;;;;;;;;;4983603;28;20042;-64
2022/08/19 14:27:40;;;;;;;9.60;8.02;;;;;;;;;;4992484;28;20038;-63
2022/08/19 14:30:08;;;;;;;8.27;6.53;;;;;;;;;;4991169;28;20053;-65
2022/08/19 14:32:34;;;;;;;9.57;5.90;;;;;;;;;;4987903;28;20108;-63
2022/08/19 14:35:00;;;;;;;8.85;5.50;;;;;;;;;;4989882;28;20045;-64
2022/08/19 14:37:26;;;;;;;9.27;5.38;;;;;;;;;;4990896;28;20051;-63
2022/08/19 14:39:52;;;;;;;7.28;5.45;;;;;;;;;;4990534;28;20412;-64
2022/08/19 14:42:19;;;;;;;7.65;5.63;;;;;;;;;;4984371;28;20172;-63
2022/08/19 14:44:45;;;;;;;6.72;4.78;;;;;;;;;;4988237;28;20030;-64
2022/08/19 14:47:12;;;;;;;6.78;5.75;;;;;;;;;;4986234;28;20112;-64
2022/08/19 14:49:39;;;;;;;8.23;6.80;;;;;;;;;;4973447;28;20519;-64
2022/08/19 14:52:05;;;;;;;10.40;7.53;;;;;;;;;;4974004;28;20500;-65
2022/08/19 14:54:31;;;;;;;12.48;7.95;;;;;;;;;;4957422;28;20057;-63
2022/08/19 14:56:57;;;;;;;9.00;7.72;;;;;;;;;;4991883;28;20057;-64